Time;durP1;ratioP1;P1;durP2;ratioP2;P2;SDS_P1;SDS_P2;PMS_P1;PMS_P2;Temp;Humidity;BMP_temperature;BMP_pressure;BME280_temperature;BME280_humidity;BME280_pressure;Samples;Min_cycle;Max_cycle;Signal;HPM_P1;HPM_P2
2021/09/24 00:01:41;;;;;;;;;;;14.10;99.90;;;;;;4993753;28;19925;-74
2021/09/24 00:04:11;;;;;;;;;;;14.20;99.90;;;;;;4997176;28;20020;-75
2021/09/24 00:06:38;;;;;;;;;;;14.20;99.90;;;;;;4994620;28;20007;-74
2021/09/24 00:09:06;;;;;;;;;;;14.20;99.90;;;;;;4995316;28;19929;-74
2021/09/24 00:11:33;;;;;;;;;;;14.30;99.90;;;;;;4996088;28;20307;-75
2021/09/24 00:13:59;;;;;;;;;;;14.30;99.90;;;;;;4993623;28;19955;-74
2021/09/24 00:16:26;;;;;;;;;;;14.30;99.90;;;;;;4993382;28;20020;-74
2021/09/24 00:18:53;;;;;;;;;;;14.40;99.90;;;;;;4997300;28;19933;-74
2021/09/24 00:21:19;;;;;;;;;;;14.40;99.90;;;;;;4995876;28;20415;-74
2021/09/24 00:23:46;;;;;;;;;;;14.40;99.90;;;;;;4994922;28;19930;-73
2021/09/24 00:26:14;;;;;;;;;;;14.40;99.90;;;;;;4995235;28;19945;-74
2021/09/24 00:28:41;;;;;;;;;;;14.50;99.90;;;;;;4995070;28;19934;-73
2021/09/24 00:31:07;;;;;;;;;;;14.60;99.90;;;;;;4994881;28;19937;-74
2021/09/24 00:33:34;;;;;;;;;;;14.60;99.90;;;;;;4995895;28;19930;-74
2021/09/24 00:36:01;;;;;;;;;;;14.60;99.90;;;;;;4995818;28;19936;-73
2021/09/24 00:38:28;;;;;;;;;;;14.60;99.90;;;;;;4993733;28;20338;-74
2021/09/24 00:40:54;;;;;;;;;;;14.60;99.90;;;;;;4990476;28;20280;-74
2021/09/24 00:43:22;;;;;;;;;;;14.70;99.90;;;;;;4993369;28;20678;-74
2021/09/24 00:45:49;;;;;;;;;;;14.70;99.90;;;;;;4990831;28;19933;-74
2021/09/24 00:48:16;;;;;;;;;;;14.70;99.90;;;;;;4993151;28;19926;-73
2021/09/24 00:50:43;;;;;;;;;;;14.80;99.90;;;;;;4993480;28;19937;-74
2021/09/24 00:53:10;;;;;;;;;;;14.80;99.90;;;;;;4991134;28;19926;-74
2021/09/24 00:55:37;;;;;;;;;;;14.80;99.90;;;;;;4993701;28;20009;-74
2021/09/24 00:58:03;;;;;;;;;;;14.80;99.90;;;;;;4993292;28;19941;-73
2021/09/24 01:00:31;;;;;;;;;;;14.80;99.90;;;;;;4996905;28;20046;-74
2021/09/24 01:02:58;;;;;;;;;;;14.80;99.90;;;;;;4990053;28;20359;-74
2021/09/24 01:05:25;;;;;;;;;;;14.90;99.90;;;;;;4995608;28;19933;-73
2021/09/24 01:07:52;;;;;;;;;;;14.90;99.90;;;;;;4993555;28;19940;-74
2021/09/24 01:10:18;;;;;;;;;;;14.90;99.90;;;;;;4989167;28;20413;-73
2021/09/24 01:12:45;;;;;;;;;;;14.90;99.90;;;;;;4993236;28;19929;-73
2021/09/24 01:15:13;;;;;;;;;;;14.90;99.90;;;;;;4996067;28;19934;-73
2021/09/24 01:17:41;;;;;;;;;;;14.90;99.90;;;;;;4994015;28;19940;-74
2021/09/24 01:20:12;;;;;;;;;;;14.90;99.90;;;;;;4998418;28;20033;-74
2021/09/24 01:22:40;;;;;;;;;;;14.90;99.90;;;;;;4990933;28;19926;-74
2021/09/24 01:25:08;;;;;;;;;;;14.90;99.90;;;;;;4994873;28;19932;-74
2021/09/24 01:27:35;;;;;;;;;;;14.90;99.90;;;;;;4991000;28;19932;-74
2021/09/24 01:30:02;;;;;;;;;;;14.90;99.90;;;;;;4992155;28;19929;-74
2021/09/24 01:32:28;;;;;;;;;;;14.90;99.90;;;;;;4994355;28;19926;-74
2021/09/24 01:34:55;;;;;;;;;;;15.00;99.90;;;;;;4999650;28;20418;-74
2021/09/24 01:37:22;;;;;;;;;;;15.00;99.90;;;;;;4994890;28;19930;-74
2021/09/24 01:39:50;;;;;;;;;;;15.00;99.90;;;;;;4990552;28;19934;-74
2021/09/24 01:42:16;;;;;;;;;;;15.00;99.90;;;;;;4992382;28;19934;-72
2021/09/24 01:44:43;;;;;;;;;;;15.00;99.90;;;;;;4990998;28;20292;-73
2021/09/24 01:47:10;;;;;;;;;;;15.00;99.90;;;;;;4997892;28;20418;-73
2021/09/24 01:49:37;;;;;;;;;;;15.10;99.90;;;;;;4998011;28;20020;-73
2021/09/24 01:52:03;;;;;;;;;;;15.10;99.90;;;;;;4992848;28;19926;-73
2021/09/24 01:54:30;;;;;;;;;;;15.10;99.90;;;;;;4990700;28;19930;-72
2021/09/24 01:56:58;;;;;;;;;;;15.10;99.90;;;;;;4994147;28;20363;-72
2021/09/24 01:59:25;;;;;;;;;;;15.10;99.90;;;;;;4993248;28;19949;-73
2021/09/24 02:01:52;;;;;;;;;;;15.10;99.90;;;;;;4993236;28;20028;-73
2021/09/24 02:04:19;;;;;;;;;;;15.10;99.90;;;;;;4993395;28;19964;-72
2021/09/24 02:06:45;;;;;;;;;;;15.10;99.90;;;;;;4994954;28;20006;-70
2021/09/24 02:09:12;;;;;;;;;;;15.20;99.90;;;;;;4991756;28;20410;-72
2021/09/24 02:11:39;;;;;;;;;;;15.20;99.90;;;;;;4991233;28;19925;-73
2021/09/24 02:14:07;;;;;;;;;;;15.20;99.90;;;;;;4992122;28;20378;-72
2021/09/24 02:16:34;;;;;;;;;;;15.20;99.90;;;;;;4992575;28;20391;-73
2021/09/24 02:19:01;;;;;;;;;;;15.20;99.90;;;;;;4993116;28;20006;-74
2021/09/24 02:21:28;;;;;;;;;;;15.20;99.90;;;;;;4992409;28;19929;-73
2021/09/24 02:23:54;;;;;;;;;;;15.30;99.90;;;;;;4995176;28;19929;-72
2021/09/24 02:26:21;;;;;;;;;;;15.30;99.90;;;;;;4994239;28;19933;-72
2021/09/24 02:28:47;;;;;;;;;;;15.30;99.90;;;;;;4989503;28;20004;-72
2021/09/24 02:31:16;;;;;;;;;;;15.30;99.90;;;;;;4991132;28;19956;-73
2021/09/24 02:33:44;;;;;;;;;;;15.40;99.90;;;;;;4990977;28;19936;-72
2021/09/24 02:36:11;;;;;;;;;;;15.40;99.90;;;;;;4991808;28;19930;-73
2021/09/24 02:38:38;;;;;;;;;;;15.40;99.90;;;;;;4992411;28;19925;-73
2021/09/24 02:41:05;;;;;;;;;;;15.40;99.90;;;;;;4993692;28;19936;-74
2021/09/24 02:43:32;;;;;;;;;;;15.40;99.90;;;;;;4990939;28;19930;-74
2021/09/24 02:45:59;;;;;;;;;;;15.50;99.90;;;;;;4993845;28;19936;-73
2021/09/24 02:48:27;;;;;;;;;;;15.40;99.90;;;;;;4994292;28;19933;-73
2021/09/24 02:50:53;;;;;;;;;;;15.50;99.90;;;;;;4996629;28;19933;-73
2021/09/24 02:53:20;;;;;;;;;;;15.50;99.90;;;;;;4995466;28;20021;-73
2021/09/24 02:55:47;;;;;;;;;;;15.50;99.90;;;;;;4999559;28;19929;-73
2021/09/24 02:58:13;;;;;;;;;;;15.50;99.90;;;;;;4994703;28;19926;-74
2021/09/24 03:00:40;;;;;;;;;;;15.50;99.90;;;;;;4995953;28;19934;-73
2021/09/24 03:03:06;;;;;;;;;;;15.50;99.90;;;;;;4996310;28;20006;-73
2021/09/24 03:05:35;;;;;;;;;;;15.50;99.90;;;;;;4995936;28;20021;-73
2021/09/24 03:08:02;;;;;;;;;;;15.50;99.90;;;;;;4995132;28;19929;-73
2021/09/24 03:10:29;;;;;;;;;;;15.50;99.90;;;;;;4996040;28;19940;-73
2021/09/24 03:12:56;;;;;;;;;;;15.50;99.90;;;;;;4995443;28;19932;-73
2021/09/24 03:15:22;;;;;;;;;;;15.50;99.90;;;;;;5001562;28;19929;-72
2021/09/24 03:17:49;;;;;;;;;;;15.60;99.90;;;;;;4998899;28;19929;-72
2021/09/24 03:20:16;;;;;;;;;;;15.60;99.90;;;;;;4996106;28;20613;-73
2021/09/24 03:22:44;;;;;;;;;;;15.60;99.90;;;;;;4992923;28;20025;-73
2021/09/24 03:25:11;;;;;;;;;;;15.60;99.90;;;;;;4995965;28;19926;-73
2021/09/24 03:27:38;;;;;;;;;;;15.60;99.90;;;;;;4996173;28;19961;-73
2021/09/24 03:30:06;;;;;;;;;;;15.60;99.90;;;;;;4994944;28;20385;-73
2021/09/24 03:32:33;;;;;;;;;;;15.60;99.90;;;;;;4994878;28;19930;-73
2021/09/24 03:35:00;;;;;;;;;;;15.60;99.90;;;;;;4996314;28;19926;-73
2021/09/24 03:37:26;;;;;;;;;;;15.50;99.90;;;;;;4999303;28;19979;-72
2021/09/24 03:39:54;;;;;;;;;;;15.50;99.90;;;;;;4993893;28;19929;-73
2021/09/24 03:42:21;;;;;;;;;;;15.50;99.90;;;;;;4996342;28;19933;-72
2021/09/24 03:44:48;;;;;;;;;;;15.50;99.90;;;;;;4992948;28;19943;-73
2021/09/24 03:47:14;;;;;;;;;;;15.50;99.90;;;;;;4996006;28;20020;-73
2021/09/24 03:49:41;;;;;;;;;;;15.40;99.90;;;;;;4996494;28;19925;-73
2021/09/24 03:52:08;;;;;;;;;;;15.50;99.90;;;;;;4994178;28;19932;-73
2021/09/24 03:54:34;;;;;;;;;;;15.50;99.90;;;;;;4995144;28;19926;-74
2021/09/24 03:57:03;;;;;;;;;;;15.40;99.90;;;;;;4992454;28;19932;-74
2021/09/24 03:59:29;;;;;;;;;;;15.40;99.90;;;;;;4994067;28;19947;-74
2021/09/24 04:01:56;;;;;;;;;;;15.40;99.90;;;;;;4996265;28;19988;-74
2021/09/24 04:04:23;;;;;;;;;;;15.40;99.90;;;;;;4998001;28;19933;-74
2021/09/24 04:06:50;;;;;;;;;;;15.50;99.90;;;;;;4997386;28;19938;-74
2021/09/24 04:09:16;;;;;;;;;;;15.40;99.90;;;;;;4994558;28;20628;-74
2021/09/24 04:11:43;;;;;;;;;;;15.40;99.90;;;;;;4995513;28;20376;-73
2021/09/24 04:14:11;;;;;;;;;;;15.40;99.90;;;;;;4993927;28;20333;-74
2021/09/24 04:16:38;;;;;;;;;;;15.40;99.90;;;;;;4996269;28;19933;-73
2021/09/24 04:19:04;;;;;;;;;;;15.40;99.90;;;;;;4996307;28;19929;-74
2021/09/24 04:21:31;;;;;;;;;;;15.40;99.90;;;;;;4993490;28;19934;-74
2021/09/24 04:23:58;;;;;;;;;;;15.40;99.90;;;;;;4996766;28;19926;-74
2021/09/24 04:26:24;;;;;;;;;;;15.30;99.90;;;;;;4994932;28;19926;-74
2021/09/24 04:28:52;;;;;;;;;;;15.40;99.90;;;;;;4995669;28;19932;-73
2021/09/24 04:31:20;;;;;;;;;;;15.30;99.90;;;;;;4994759;28;19925;-73
2021/09/24 04:33:47;;;;;;;;;;;15.30;99.90;;;;;;4997170;28;20287;-74
2021/09/24 04:36:13;;;;;;;;;;;15.40;99.90;;;;;;4992457;28;19925;-73
2021/09/24 04:38:40;;;;;;;;;;;15.40;99.90;;;;;;4994542;28;19925;-73
2021/09/24 04:41:07;;;;;;;;;;;15.40;99.90;;;;;;4994092;28;19925;-74
2021/09/24 04:43:33;;;;;;;;;;;15.40;99.90;;;;;;4994010;28;19937;-73
2021/09/24 04:46:00;;;;;;;;;;;15.40;99.90;;;;;;4990925;28;20259;-73
2021/09/24 04:48:31;;;;;;;;;;;15.40;99.90;;;;;;4991091;28;19956;-73
2021/09/24 04:50:58;;;;;;;;;;;15.40;99.90;;;;;;4994744;28;19929;-73
2021/09/24 04:53:24;;;;;;;;;;;15.40;99.90;;;;;;4993078;28;19929;-72
2021/09/24 04:55:51;;;;;;;;;;;15.40;99.90;;;;;;4994504;28;19934;-72
2021/09/24 04:58:18;;;;;;;;;;;15.40;99.90;;;;;;4994484;28;19929;-73
2021/09/24 05:00:45;;;;;;;;;;;15.50;99.90;;;;;;4989550;28;19944;-74
2021/09/24 05:03:12;;;;;;;;;;;15.50;99.90;;;;;;4996207;28;20008;-73
2021/09/24 05:05:40;;;;;;;;;;;15.50;99.90;;;;;;4989634;28;19934;-72
2021/09/24 05:08:07;;;;;;;;;;;15.50;99.90;;;;;;4992687;28;20291;-73
2021/09/24 05:10:33;;;;;;;;;;;15.50;99.90;;;;;;4993213;28;20354;-72
2021/09/24 05:13:00;;;;;;;;;;;15.50;99.90;;;;;;4995579;28;19969;-73
2021/09/24 05:15:28;;;;;;;;;;;15.50;99.90;;;;;;4991103;28;19934;-73
2021/09/24 05:17:55;;;;;;;;;;;15.50;99.90;;;;;;4993994;28;19933;-74
2021/09/24 05:20:21;;;;;;;;;;;15.40;99.90;;;;;;5000535;28;19943;-74
2021/09/24 05:22:49;;;;;;;;;;;15.40;99.90;;;;;;4996125;28;20024;-74
2021/09/24 05:25:16;;;;;;;;;;;15.40;99.90;;;;;;5017157;28;19930;-74
2021/09/24 05:27:43;;;;;;;;;;;15.40;99.90;;;;;;4994737;28;19976;-74
2021/09/24 05:30:10;;;;;;;;;;;15.40;99.90;;;;;;4992386;28;20025;-74
2021/09/24 05:32:36;;;;;;;;;;;15.40;99.90;;;;;;4995404;28;20314;-74
2021/09/24 05:35:03;;;;;;;;;;;15.40;99.90;;;;;;4992258;28;20307;-73
2021/09/24 05:37:30;;;;;;;;;;;15.40;99.90;;;;;;4987474;28;19936;-74
2021/09/24 05:39:59;;;;;;;;;;;15.40;99.90;;;;;;4996774;28;19989;-76
2021/09/24 05:42:25;;;;;;;;;;;15.40;99.90;;;;;;5004213;28;19929;-74
2021/09/24 05:44:52;;;;;;;;;;;15.40;99.90;;;;;;4997106;28;19925;-74
2021/09/24 05:47:19;;;;;;;;;;;15.40;99.90;;;;;;4987075;28;19933;-74
2021/09/24 05:49:45;;;;;;;;;;;15.40;99.90;;;;;;5001991;28;19940;-74
2021/09/24 05:52:12;;;;;;;;;;;15.40;99.90;;;;;;4998232;28;20024;-74
2021/09/24 05:54:39;;;;;;;;;;;15.40;99.90;;;;;;4997776;28;19930;-74
2021/09/24 05:57:07;;;;;;;;;;;15.40;99.90;;;;;;5007798;28;20010;-75
2021/09/24 05:59:33;;;;;;;;;;;15.40;99.90;;;;;;4987251;28;19936;-74
2021/09/24 06:02:00;;;;;;;;;;;15.50;99.90;;;;;;4992535;28;19926;-73
2021/09/24 06:04:27;;;;;;;;;;;15.50;99.90;;;;;;5008470;28;19924;-73
2021/09/24 06:06:53;;;;;;;;;;;15.50;99.90;;;;;;5025807;28;20032;-74
2021/09/24 06:09:20;;;;;;;;;;;15.50;99.90;;;;;;5016861;28;19933;-74
2021/09/24 06:11:47;;;;;;;;;;;15.50;99.90;;;;;;5005475;28;20384;-73
2021/09/24 06:14:16;;;;;;;;;;;15.50;99.90;;;;;;4993752;28;20310;-73
2021/09/24 06:16:43;;;;;;;;;;;15.50;99.90;;;;;;4996657;28;19977;-73
2021/09/24 06:19:10;;;;;;;;;;;15.60;99.90;;;;;;5007351;28;19925;-73
2021/09/24 06:21:38;;;;;;;;;;;15.60;99.90;;;;;;4993213;28;19952;-74
2021/09/24 06:24:05;;;;;;;;;;;15.60;99.90;;;;;;4996751;28;19925;-73
2021/09/24 06:26:32;;;;;;;;;;;15.70;99.90;;;;;;4999145;28;20032;-74
2021/09/24 06:28:58;;;;;;;;;;;15.70;99.90;;;;;;4995383;28;20452;-73
2021/09/24 06:31:26;;;;;;;;;;;15.70;99.90;;;;;;4990419;28;20409;-74
2021/09/24 06:33:53;;;;;;;;;;;15.70;99.90;;;;;;4997840;28;19926;-73
2021/09/24 06:36:21;;;;;;;;;;;15.80;99.90;;;;;;4997459;28;19925;-73
2021/09/24 06:38:47;;;;;;;;;;;15.80;99.90;;;;;;4999881;28;19932;-73
2021/09/24 06:41:14;;;;;;;;;;;15.80;99.90;;;;;;4995705;28;19936;-73
2021/09/24 06:43:42;;;;;;;;;;;15.80;99.90;;;;;;4996778;28;19925;-73
2021/09/24 06:46:08;;;;;;;;;;;15.90;99.90;;;;;;5001074;28;19937;-74
2021/09/24 06:48:36;;;;;;;;;;;15.90;99.90;;;;;;4999799;28;19929;-73
2021/09/24 06:51:03;;;;;;;;;;;15.90;99.90;;;;;;4996373;28;20406;-74
2021/09/24 06:53:30;;;;;;;;;;;16.00;99.90;;;;;;5000731;28;19949;-73
2021/09/24 06:55:57;;;;;;;;;;;16.10;99.90;;;;;;4996524;28;19929;-73
2021/09/24 06:58:24;;;;;;;;;;;16.10;99.90;;;;;;5003201;28;19942;-75
2021/09/24 07:00:51;;;;;;;;;;;16.10;99.90;;;;;;5002055;28;19934;-74
2021/09/24 07:03:18;;;;;;;;;;;16.10;99.90;;;;;;4999274;28;19986;-74
2021/09/24 07:05:46;;;;;;;;;;;16.10;99.90;;;;;;4987478;28;19925;-74
2021/09/24 07:08:13;;;;;;;;;;;16.20;99.90;;;;;;4998880;28;19932;-74
2021/09/24 07:10:40;;;;;;;;;;;16.20;99.90;;;;;;4999751;28;20273;-74
2021/09/24 07:13:06;;;;;;;;;;;16.30;99.90;;;;;;4993232;28;19926;-75
2021/09/24 07:15:33;;;;;;;;;;;16.40;99.90;;;;;;4990253;28;20024;-74
2021/09/24 07:18:00;;;;;;;;;;;16.40;99.90;;;;;;5002703;28;19934;-75
2021/09/24 07:20:27;;;;;;;;;;;16.50;99.90;;;;;;5001301;28;19992;-73
2021/09/24 07:22:55;;;;;;;;;;;16.60;99.90;;;;;;4991941;28;19926;-73
2021/09/24 07:25:21;;;;;;;;;;;16.60;99.90;;;;;;5001043;28;19926;-74
2021/09/24 07:27:48;;;;;;;;;;;16.70;99.90;;;;;;5002078;28;19933;-70
2021/09/24 07:30:15;;;;;;;;;;;16.80;99.90;;;;;;5000309;28;19932;-76
2021/09/24 07:32:41;;;;;;;;;;;16.90;99.90;;;;;;5006291;28;19929;-77
2021/09/24 07:35:08;;;;;;;;;;;16.90;99.90;;;;;;5021066;28;20401;-77
2021/09/24 07:37:35;;;;;;;;;;;17.00;99.90;;;;;;4994978;28;19956;-78
2021/09/24 07:40:03;;;;;;;;;;;17.00;99.90;;;;;;4994044;28;19934;-79
2021/09/24 07:42:30;;;;;;;;;;;17.10;99.90;;;;;;4990194;28;19979;-80
2021/09/24 07:44:57;;;;;;;;;;;17.10;99.90;;;;;;5001586;28;20786;-75
2021/09/24 07:47:23;;;;;;;;;;;17.10;99.90;;;;;;4994969;28;20278;-77
2021/09/24 07:49:50;;;;;;;;;;;17.00;99.90;;;;;;5011914;28;20543;-78
2021/09/24 07:52:17;;;;;;;;;;;17.10;99.90;;;;;;4999410;28;20225;-80
2021/09/24 07:54:44;;;;;;;;;;;17.10;99.90;;;;;;5003698;28;20289;-78
2021/09/24 07:57:13;;;;;;;;;;;17.10;99.90;;;;;;5002311;28;19966;-78
2021/09/24 07:59:42;;;;;;;;;;;17.10;99.90;;;;;;5030151;28;19926;-79
2021/09/24 08:02:09;;;;;;;;;;;17.20;99.90;;;;;;4999250;28;20125;-79
2021/09/24 08:04:36;;;;;;;;;;;17.50;99.90;;;;;;5004667;28;19925;-80
2021/09/24 08:07:05;;;;;;;;;;;17.80;99.90;;;;;;4990697;28;20413;-80
2021/09/24 08:09:32;;;;;;;;;;;18.00;99.90;;;;;;4999227;28;20021;-78
2021/09/24 08:11:58;;;;;;;;;;;18.10;99.90;;;;;;4993201;28;20349;-77
2021/09/24 08:14:26;;;;;;;;;;;18.10;99.90;;;;;;5002619;28;19952;-79
2021/09/24 08:16:53;;;;;;;;;;;17.90;99.90;;;;;;5015916;28;19930;-78
2021/09/24 08:19:20;;;;;;;;;;;17.90;99.90;;;;;;4992386;28;19930;-77
2021/09/24 08:21:46;;;;;;;;;;;17.90;99.90;;;;;;4993639;28;19932;-76
2021/09/24 08:24:13;;;;;;;;;;;17.90;99.90;;;;;;4990319;28;20459;-76
2021/09/24 08:26:40;;;;;;;;;;;18.00;99.90;;;;;;4995599;28;19982;-76
2021/09/24 08:29:06;;;;;;;;;;;18.00;99.90;;;;;;5023079;28;21254;-77
2021/09/24 08:31:35;;;;;;;;;;;17.90;99.90;;;;;;4992425;28;19932;-80
2021/09/24 08:34:02;;;;;;;;;;;18.00;99.90;;;;;;5004257;28;19932;-79
2021/09/24 08:36:29;;;;;;;;;;;18.20;99.90;;;;;;4992477;28;19934;-79
2021/09/24 08:38:56;;;;;;;;;;;18.30;99.90;;;;;;5018090;28;19926;-78
2021/09/24 08:41:25;;;;;;;;;;;18.40;99.90;;;;;;4999764;28;19949;-74
2021/09/24 08:43:52;;;;;;;;;;;18.60;99.90;;;;;;4992832;28;19980;-77
2021/09/24 08:46:19;;;;;;;;;;;18.70;99.90;;;;;;5003516;28;19981;-76
2021/09/24 08:48:47;;;;;;;;;;;18.60;99.90;;;;;;4993334;28;19935;-76
2021/09/24 08:51:14;;;;;;;;;;;18.60;99.90;;;;;;4997400;28;20420;-77
2021/09/24 08:53:41;;;;;;;;;;;18.60;99.90;;;;;;4997287;28;19932;-78
2021/09/24 08:56:10;;;;;;;;;;;18.60;99.90;;;;;;5000954;28;20343;-79
2021/09/24 08:58:37;;;;;;;;;;;18.60;99.90;;;;;;4991915;28;19945;-79
2021/09/24 09:01:04;;;;;;;;;;;18.70;99.90;;;;;;4996541;28;19934;-79
2021/09/24 09:03:37;;;;;;;;;;;18.90;99.90;;;;;;5002387;28;19932;-76
2021/09/24 09:06:05;;;;;;;;;;;19.10;99.90;;;;;;4990476;28;20287;-79
2021/09/24 09:08:33;;;;;;;;;;;19.50;99.90;;;;;;5003111;28;19925;-77
2021/09/24 09:11:00;;;;;;;;;;;19.70;99.90;;;;;;4993160;28;19933;-78
2021/09/24 09:13:29;;;;;;;;;;;19.80;99.90;;;;;;4999060;28;19926;-81
2021/09/24 09:15:57;;;;;;;;;;;19.90;99.90;;;;;;4997849;28;20790;-79
2021/09/24 09:18:24;;;;;;;;;;;19.90;99.90;;;;;;4996940;28;20013;-79
2021/09/24 09:20:51;;;;;;;;;;;20.70;99.90;;;;;;4989837;28;20304;-79
2021/09/24 09:23:20;;;;;;;;;;;20.70;99.90;;;;;;5000876;28;20384;-80
2021/09/24 09:25:49;;;;;;;;;;;20.70;99.90;;;;;;4996026;28;19932;-81
2021/09/24 09:28:18;;;;;;;;;;;20.50;99.90;;;;;;4998676;28;19936;-77
2021/09/24 09:30:46;;;;;;;;;;;21.00;99.90;;;;;;4995452;28;19929;-78
2021/09/24 09:33:17;;;;;;;;;;;20.80;99.90;;;;;;4997840;28;20316;-79
2021/09/24 09:35:44;;;;;;;;;;;21.30;99.90;;;;;;4999131;28;19926;-82
2021/09/24 09:38:18;;;;;;;;;;;21.60;99.90;;;;;;4996897;28;19987;-81
2021/09/24 09:40:47;;;;;;;;;;;21.30;99.90;;;;;;4998846;28;19997;-78
2021/09/24 09:43:19;;;;;;;;;;;21.20;99.90;;;;;;5000186;28;19928;-80
2021/09/24 09:45:46;;;;;;;;;;;20.90;99.90;;;;;;4991562;28;19979;-77
2021/09/24 09:48:13;;;;;;;;;;;20.80;99.90;;;;;;5011460;28;19930;-80
2021/09/24 09:50:40;;;;;;;;;;;21.30;99.90;;;;;;5036158;28;19923;-79
2021/09/24 09:53:08;;;;;;;;;;;21.40;99.90;;;;;;4993862;28;19935;-80
2021/09/24 09:55:36;;;;;;;;;;;21.30;99.90;;;;;;5007091;28;19943;-78
2021/09/24 09:58:06;;;;;;;;;;;21.10;99.90;;;;;;5028104;28;20472;-79
2021/09/24 10:00:34;;;;;;;;;;;20.90;99.90;;;;;;4991809;28;19933;-80
2021/09/24 10:03:04;;;;;;;;;;;20.60;99.90;;;;;;5014233;28;19926;-79
2021/09/24 10:05:32;;;;;;;;;;;20.30;99.90;;;;;;5005723;28;20303;-82
2021/09/24 10:08:01;;;;;;;;;;;20.50;99.90;;;;;;5000348;28;20013;-77
2021/09/24 10:10:28;;;;;;;;;;;20.50;99.90;;;;;;4997139;28;19926;-78
2021/09/24 10:13:04;;;;;;;;;;;20.50;99.90;;;;;;5002020;28;20025;-79
2021/09/24 10:15:32;;;;;;;;;;;20.60;99.90;;;;;;5002451;28;19925;-77
2021/09/24 10:17:59;;;;;;;;;;;20.90;99.90;;;;;;5001024;28;20003;-77
2021/09/24 10:20:26;;;;;;;;;;;21.00;99.90;;;;;;4995309;28;19932;-77
2021/09/24 10:22:53;;;;;;;;;;;20.80;99.90;;;;;;5002158;28;20402;-82
2021/09/24 10:25:21;;;;;;;;;;;20.90;99.90;;;;;;5005323;28;19925;-82
2021/09/24 10:27:48;;;;;;;;;;;21.00;99.90;;;;;;4996909;28;19973;-80
2021/09/24 10:30:17;;;;;;;;;;;21.00;99.90;;;;;;4998750;28;19932;-79
2021/09/24 10:32:54;;;;;;;;;;;20.90;99.90;;;;;;5005640;28;20016;-79
2021/09/24 10:35:21;;;;;;;;;;;20.90;99.90;;;;;;4999729;28;19932;-82
2021/09/24 10:37:49;;;;;;;;;;;20.90;99.90;;;;;;5002089;28;19926;-85
2021/09/24 10:40:26;;;;;;;;;;;21.00;99.90;;;;;;5009353;28;20532;-80
2021/09/24 10:42:57;;;;;;;;;;;21.10;99.90;;;;;;5007591;28;19931;-80
2021/09/24 10:45:32;;;;;;;;;;;21.40;99.90;;;;;;5004447;28;19944;-82
2021/09/24 10:48:05;;;;;;;;;;;21.60;99.90;;;;;;4995044;28;19929;-80
2021/09/24 10:50:50;;;;;;;;;;;21.70;99.90;;;;;;5004672;28;20451;-81
2021/09/24 10:53:18;;;;;;;;;;;21.70;99.90;;;;;;5006899;28;19925;-82
2021/09/24 10:55:46;;;;;;;;;;;21.90;99.90;;;;;;4996600;28;19977;-85
2021/09/24 10:58:13;;;;;;;;;;;22.00;99.90;;;;;;4997176;28;19926;-82
2021/09/24 11:00:45;;;;;;;;;;;22.00;99.90;;;;;;5006707;28;20392;-82
2021/09/24 11:03:15;;;;;;;;;;;22.10;99.90;;;;;;5013764;28;20021;-81
2021/09/24 11:05:58;;;;;;;;;;;22.00;99.90;;;;;;5003040;28;19979;-81
2021/09/24 11:08:37;;;;;;;;;;;21.90;99.90;;;;;;4999930;28;19934;-83
2021/09/24 11:11:04;;;;;;;;;;;21.90;99.90;;;;;;4994058;28;19930;-86
2021/09/24 11:13:32;;;;;;;;;;;22.10;99.90;;;;;;5007630;28;19925;-81
2021/09/24 11:15:59;;;;;;;;;;;22.10;99.90;;;;;;4999978;28;20383;-81
2021/09/24 11:18:41;;;;;;;;;;;22.00;99.90;;;;;;5007599;28;19925;-80
2021/09/24 11:21:09;;;;;;;;;;;21.80;99.90;;;;;;4992370;28;20346;-80
2021/09/24 11:23:36;;;;;;;;;;;21.80;99.90;;;;;;4991348;28;20020;-81
2021/09/24 11:26:16;;;;;;;;;;;21.80;99.90;;;;;;5000059;28;19926;-80
2021/09/24 11:28:44;;;;;;;;;;;21.80;99.90;;;;;;5004700;28;19952;-81
2021/09/24 11:31:11;;;;;;;;;;;21.70;99.90;;;;;;5008070;28;19971;-80
2021/09/24 11:33:39;;;;;;;;;;;21.70;99.90;;;;;;5004209;28;20471;-83
2021/09/24 11:36:06;;;;;;;;;;;21.50;99.90;;;;;;5006434;28;19928;-80
2021/09/24 11:38:34;;;;;;;;;;;21.40;99.90;;;;;;5004001;28;20032;-80
2021/09/24 11:41:01;;;;;;;;;;;21.30;99.90;;;;;;4992510;28;20034;-79
2021/09/24 11:43:29;;;;;;;;;;;21.40;99.90;;;;;;5000750;28;19926;-82
2021/09/24 11:45:58;;;;;;;;;;;21.40;99.90;;;;;;4993852;28;20012;-83
2021/09/24 11:48:31;;;;;;;;;;;21.50;99.90;;;;;;5017849;28;19933;-80
2021/09/24 11:51:08;;;;;;;;;;;21.40;99.90;;;;;;4997216;28;19933;-80
2021/09/24 11:53:44;;;;;;;;;;;21.30;99.90;;;;;;4991931;28;19930;-80
2021/09/24 11:56:11;;;;;;;;;;;21.60;99.90;;;;;;4998177;28;19926;-82
2021/09/24 11:58:37;;;;;;;;;;;21.80;99.90;;;;;;4998181;28;19926;-80
2021/09/24 12:01:04;;;;;;;;;;;21.80;99.90;;;;;;4993447;28;20396;-81
2021/09/24 12:03:31;;;;;;;;;;;21.80;99.90;;;;;;4997367;28;19938;-81
2021/09/24 12:05:59;;;;;;;;;;;21.80;99.90;;;;;;5002283;28;19934;-81
2021/09/24 12:08:27;;;;;;;;;;;21.80;99.90;;;;;;5000510;28;19956;-79
2021/09/24 12:10:58;;;;;;;;;;;21.80;99.90;;;;;;5002873;28;20283;-81
2021/09/24 12:13:34;;;;;;;;;;;21.70;99.90;;;;;;5003081;28;20288;-80
2021/09/24 12:16:01;;;;;;;;;;;21.70;99.90;;;;;;4989175;28;19933;-80
2021/09/24 12:18:44;;;;;;;;;;;22.10;99.90;;;;;;5013119;28;20187;-83
2021/09/24 12:21:12;;;;;;;;;;;22.20;99.90;;;;;;4997538;28;20354;-81
2021/09/24 12:23:39;;;;;;;;;;;22.10;99.90;;;;;;5002148;28;20342;-84
2021/09/24 12:26:08;;;;;;;;;;;21.70;99.90;;;;;;4995676;28;20296;-79
2021/09/24 12:28:35;;;;;;;;;;;21.70;99.90;;;;;;4999205;28;19933;-79
2021/09/24 12:31:02;;;;;;;;;;;21.80;99.90;;;;;;5001758;28;20410;-80
2021/09/24 12:33:29;;;;;;;;;;;22.00;99.90;;;;;;4997002;28;19940;-79
2021/09/24 12:35:57;;;;;;;;;;;22.30;99.90;;;;;;5001474;28;20021;-80
2021/09/24 12:38:24;;;;;;;;;;;22.50;99.90;;;;;;5001606;28;20312;-80
2021/09/24 12:43:51;;;;;;;;;;;22.20;99.90;;;;;;5094899;27;19916;-81
2021/09/24 12:46:18;;;;;;;;;;;22.20;99.90;;;;;;5083358;28;19924;-81
2021/09/24 12:48:45;;;;;;;;;;;22.30;99.90;;;;;;5091420;28;19931;-82
2021/09/24 12:51:13;;;;;;;;;;;22.30;99.90;;;;;;5085781;28;19924;-82
2021/09/24 12:53:42;;;;;;;;;;;22.30;99.90;;;;;;5081193;28;19933;-81
2021/09/24 12:56:11;;;;;;;;;;;22.30;99.90;;;;;;5079225;28;19925;-80
2021/09/24 12:58:39;;;;;;;;;;;22.20;99.90;;;;;;5081974;28;19924;-80
2021/09/24 13:01:09;;;;;;;;;;;22.10;99.90;;;;;;5083007;28;20494;-79
2021/09/24 13:03:40;;;;;;;;;;;22.00;99.90;;;;;;5074527;28;19929;-79
2021/09/24 13:06:07;;;;;;;;;;;21.60;99.90;;;;;;5081498;28;19946;-77
2021/09/24 13:08:34;;;;;;;;;;;21.50;99.90;;;;;;5083013;28;20321;-78
2021/09/24 13:11:01;;;;;;;;;;;21.70;99.90;;;;;;5080480;28;20019;-80
2021/09/24 13:13:27;;;;;;;;;;;21.90;99.90;;;;;;5081819;28;19993;-79
2021/09/24 13:15:55;;;;;;;;;;;21.70;99.90;;;;;;5082856;28;19940;-80
2021/09/24 13:18:23;;;;;;;;;;;21.80;99.90;;;;;;5085002;28;19931;-79
2021/09/24 13:20:50;;;;;;;;;;;21.80;99.90;;;;;;5080199;28;19982;-77
2021/09/24 13:23:18;;;;;;;;;;;22.10;99.90;;;;;;5077775;28;19939;-78
2021/09/24 13:25:45;;;;;;;;;;;22.10;99.90;;;;;;5075438;28;19935;-77
2021/09/24 13:28:12;;;;;;;;;;;22.10;99.90;;;;;;5077723;28;19938;-79
2021/09/24 13:30:43;;;;;;;;;;;22.40;99.90;;;;;;5079947;28;19943;-79
2021/09/24 13:33:11;;;;;;;;;;;22.40;99.90;;;;;;5087679;28;19925;-79
2021/09/24 13:35:39;;;;;;;;;;;22.30;99.90;;;;;;5091508;28;19959;-83
2021/09/24 13:38:06;;;;;;;;;;;22.10;99.90;;;;;;5088432;28;20390;-79
2021/09/24 13:40:32;;;;;;;;;;;22.30;99.90;;;;;;5088974;28;19975;-79
2021/09/24 13:42:59;;;;;;;;;;;22.50;99.90;;;;;;5087969;28;20160;-80
2021/09/24 13:45:26;;;;;;;;;;;22.30;99.90;;;;;;5080919;28;19939;-80
2021/09/24 13:47:53;;;;;;;;;;;22.20;99.90;;;;;;5093723;28;19978;-80
2021/09/24 13:50:22;;;;;;;;;;;21.90;99.90;;;;;;5084290;28;20014;-82
2021/09/24 13:52:51;;;;;;;;;;;22.20;99.90;;;;;;5083802;28;20291;-81
2021/09/24 13:55:17;;;;;;;;;;;22.20;99.90;;;;;;5065660;28;20034;-78
2021/09/24 13:57:44;;;;;;;;;;;22.40;99.90;;;;;;5062006;28;19926;-81
2021/09/24 14:00:12;;;;;;;;;;;22.20;99.90;;;;;;5069783;28;19932;-82
2021/09/24 14:02:38;;;;;;;;;;;22.10;99.90;;;;;;5064566;28;19933;-80
2021/09/24 14:05:05;;;;;;;;;;;22.20;99.90;;;;;;5072250;28;19925;-79
2021/09/24 14:07:32;;;;;;;;;;;22.00;99.90;;;;;;5086138;28;19928;-79
2021/09/24 14:10:00;;;;;;;;;;;22.00;99.90;;;;;;5069462;28;19932;-80
2021/09/24 14:12:28;;;;;;;;;;;21.90;99.90;;;;;;5068893;28;19936;-76
2021/09/24 14:14:55;;;;;;;;;;;22.00;99.90;;;;;;5075163;28;19924;-77
2021/09/24 14:17:22;;;;;;;;;;;21.90;99.90;;;;;;5073654;28;19928;-80
2021/09/24 14:19:49;;;;;;;;;;;22.20;99.90;;;;;;5067220;28;19954;-80
2021/09/24 14:22:16;;;;;;;;;;;22.30;99.90;;;;;;5069391;28;19932;-80